GMFO/OUD METAR and TAF weather

Enter ICAO airport designator
Station Type Date Time Source
GMFO METAR 2021/03/01 09:00 UTC NOAA

GMFO 010900Z VRB02KT 3000 BR BKN013 11/09 Q1016 NOSIG


Station Type Date Time Source
GMFO Decoded METAR 2021/03/01 09:00 UTC NOAA

Oujda, Morocco (GMFO) 34-47N 001-56W 470M
Mar 01, 2021 - 04:00 AM EST / 2021.03.01 0900 UTC
Wind: Variable at 2 MPH (2 KT):0
Visibility: 1 mile(s):0
Sky conditions: mostly cloudy
Weather: mist
Temperature: 51 F (11 C)
Dew Point: 48 F (9 C)
Relative Humidity: 87%
Pressure (altimeter): 30.00 in. Hg (1016 hPa)
ob: GMFO 010900Z VRB02KT 3000 BR BKN013 11/09 Q1016 NOSIG
cycle: 9

Station Type Date Time Source
GMFO TAF 2021/03/01 06:16 UTC NOAA

TAF GMFO 010500Z 0106/0212 27004KT 8000 FEW016 BKN100
TEMPO 0113/0121 35016KT

Example: see airport list